createdAt,value
2023-08-15T00:01:39.262Z,22.08
2023-08-15T00:04:08.641Z,22.08
2023-08-15T00:06:37.789Z,22.05
2023-08-15T00:09:07.782Z,22.04
2023-08-15T00:11:36.747Z,22.02
2023-08-15T00:14:06.861Z,21.99
2023-08-15T00:16:36.301Z,21.95
2023-08-15T00:19:05.845Z,21.92
2023-08-15T00:21:34.887Z,21.90
2023-08-15T00:24:04.466Z,21.87
2023-08-15T00:26:34.022Z,21.85
2023-08-15T00:29:02.935Z,21.83
2023-08-15T00:31:32.404Z,21.79
2023-08-15T00:34:01.639Z,21.78
2023-08-15T00:36:31.744Z,21.77
2023-08-15T00:39:04.063Z,21.74
2023-08-15T00:41:33.358Z,21.71
2023-08-15T00:44:02.617Z,21.67
2023-08-15T00:46:32.641Z,21.63
2023-08-15T00:49:01.758Z,21.57
2023-08-15T00:51:30.653Z,21.56
2023-08-15T00:54:00.738Z,21.54
2023-08-15T00:56:30.306Z,21.49
2023-08-15T00:59:00.377Z,21.46
2023-08-15T01:01:30.688Z,21.39
2023-08-15T01:04:00.945Z,21.29
2023-08-15T01:06:30.569Z,21.20
2023-08-15T01:09:07.916Z,21.16
2023-08-15T01:12:09.662Z,21.11
2023-08-15T01:14:45.109Z,21.04
2023-08-15T01:17:20.420Z,20.98
2023-08-15T01:19:54.294Z,20.92
2023-08-15T01:22:47.577Z,20.89
2023-08-15T01:26:14.195Z,20.85
2023-08-15T01:30:02.624Z,20.81
2023-08-15T01:33:18.250Z,20.81
2023-08-15T01:36:51.213Z,20.83
2023-08-15T01:40:16.634Z,20.79
2023-08-15T01:43:31.677Z,20.79
2023-08-15T01:46:27.565Z,20.74
2023-08-15T01:48:59.067Z,20.72
2023-08-15T01:51:28.116Z,20.70
2023-08-15T01:53:57.136Z,20.68
2023-08-15T01:56:26.682Z,20.68
2023-08-15T01:58:56.092Z,20.69
2023-08-15T02:01:26.364Z,20.66
2023-08-15T02:03:55.993Z,20.63
2023-08-15T02:06:25.295Z,20.61
2023-08-15T02:08:54.842Z,20.65
2023-08-15T02:11:23.587Z,20.65
2023-08-15T02:13:52.905Z,20.63
2023-08-15T02:16:22.086Z,20.64
2023-08-15T02:18:51.219Z,20.61
2023-08-15T02:21:19.906Z,20.55
2023-08-15T02:23:49.126Z,20.50
2023-08-15T02:26:18.009Z,20.47
2023-08-15T02:28:46.676Z,20.45
2023-08-15T02:31:16.051Z,20.44
2023-08-15T02:33:44.797Z,20.43
2023-08-15T02:36:16.992Z,20.42
2023-08-15T02:38:46.272Z,20.43
2023-08-15T02:41:15.816Z,20.41
2023-08-15T02:43:45.166Z,20.36
2023-08-15T02:46:14.092Z,20.32
2023-08-15T02:48:43.287Z,20.29
2023-08-15T02:51:12.160Z,20.27
2023-08-15T02:53:41.114Z,20.25
2023-08-15T02:56:09.755Z,20.20
2023-08-15T02:58:38.976Z,20.19
2023-08-15T03:01:08.319Z,20.15
2023-08-15T03:03:37.700Z,20.06
2023-08-15T03:06:07.231Z,20.00
2023-08-15T03:08:36.336Z,19.96
2023-08-15T03:11:05.066Z,19.94
2023-08-15T03:13:34.077Z,19.99
2023-08-15T03:16:02.888Z,20.02
2023-08-15T03:18:32.135Z,19.94
2023-08-15T03:21:03.675Z,19.89
2023-08-15T03:23:32.766Z,19.87
2023-08-15T03:26:03.718Z,19.81
2023-08-15T03:28:34.277Z,19.69
2023-08-15T03:31:08.512Z,19.57
2023-08-15T03:33:37.409Z,19.47
2023-08-15T03:36:07.187Z,19.41
2023-08-15T03:38:36.134Z,19.37
2023-08-15T03:41:07.758Z,19.36
2023-08-15T03:43:37.719Z,19.36
2023-08-15T03:46:07.843Z,19.36
2023-08-15T03:48:37.661Z,19.35
2023-08-15T03:51:07.945Z,19.34
2023-08-15T03:53:37.736Z,19.34
2023-08-15T03:56:06.643Z,19.33
2023-08-15T03:58:35.590Z,19.33
2023-08-15T04:01:05.683Z,19.33
2023-08-15T04:03:35.179Z,19.34
2023-08-15T04:06:05.104Z,19.36
2023-08-15T04:08:34.537Z,19.39
2023-08-15T04:11:04.816Z,19.41
2023-08-15T04:13:34.503Z,19.45
2023-08-15T04:16:03.837Z,19.50
2023-08-15T04:18:32.553Z,19.58
2023-08-15T04:21:01.877Z,19.63
2023-08-15T04:23:31.332Z,19.68
2023-08-15T04:26:00.818Z,19.68
2023-08-15T04:28:29.717Z,19.71
2023-08-15T04:30:58.565Z,19.73
2023-08-15T04:33:27.365Z,19.75
2023-08-15T04:35:56.143Z,19.79
2023-08-15T04:38:24.926Z,19.82
2023-08-15T04:40:55.982Z,19.88
2023-08-15T04:43:25.813Z,19.96
2023-08-15T04:45:55.070Z,20.06
2023-08-15T04:48:24.782Z,20.14
2023-08-15T04:50:53.580Z,20.22
2023-08-15T04:53:22.935Z,20.28
2023-08-15T04:55:51.728Z,20.36
2023-08-15T04:58:21.319Z,20.44
2023-08-15T05:00:50.661Z,20.54
2023-08-15T05:03:20.142Z,20.67
2023-08-15T05:05:49.691Z,20.78
2023-08-15T05:08:18.790Z,20.91
2023-08-15T05:10:48.889Z,21.03
2023-08-15T05:13:17.801Z,21.16
2023-08-15T05:15:46.783Z,21.25
2023-08-15T05:18:18.230Z,21.29
2023-08-15T05:20:49.017Z,21.52
2023-08-15T05:23:19.172Z,21.85
2023-08-15T05:25:48.566Z,21.97
2023-08-15T05:28:17.440Z,22.03
2023-08-15T05:30:46.853Z,22.17
2023-08-15T05:33:16.102Z,22.39
2023-08-15T05:35:44.946Z,22.69
2023-08-15T05:38:14.313Z,22.93
2023-08-15T05:40:43.130Z,23.20
2023-08-15T05:43:12.030Z,23.39
2023-08-15T05:45:41.288Z,23.68
2023-08-15T05:48:12.303Z,24.07
2023-08-15T05:50:42.691Z,24.55
2023-08-15T05:53:13.351Z,25.02
2023-08-15T05:55:44.380Z,25.47
2023-08-15T05:58:13.704Z,25.82
2023-08-15T06:00:43.607Z,26.21
2023-08-15T06:03:13.112Z,26.63
2023-08-15T06:05:42.106Z,27.01
2023-08-15T06:08:13.627Z,27.49
2023-08-15T06:10:44.371Z,28.01
2023-08-15T06:13:13.141Z,28.47
2023-08-15T06:15:42.517Z,28.82
2023-08-15T06:18:11.418Z,29.17
2023-08-15T06:20:40.920Z,29.61
2023-08-15T06:23:09.862Z,29.94
2023-08-15T06:25:41.680Z,30.23
2023-08-15T06:28:10.892Z,30.48
2023-08-15T06:30:43.694Z,30.82
2023-08-15T06:33:13.458Z,31.07
2023-08-15T06:35:42.266Z,31.32
2023-08-15T06:38:11.663Z,31.73
2023-08-15T06:40:41.410Z,32.21
2023-08-15T06:43:10.769Z,32.29
2023-08-15T06:45:40.156Z,32.21
2023-08-15T06:48:09.267Z,32.42
2023-08-15T06:50:38.643Z,33.02
2023-08-15T06:53:07.966Z,33.53
2023-08-15T06:55:36.680Z,34.07
2023-08-15T06:58:06.538Z,34.41
2023-08-15T07:00:36.336Z,34.66
2023-08-15T07:03:05.957Z,35.10
2023-08-15T07:05:36.410Z,35.61
2023-08-15T07:08:06.304Z,36.08
2023-08-15T07:10:38.242Z,36.54
2023-08-15T07:13:07.806Z,36.85
2023-08-15T07:15:36.611Z,37.12
2023-08-15T07:18:05.866Z,37.44
2023-08-15T07:20:35.486Z,37.93
2023-08-15T07:23:06.109Z,37.98
2023-08-15T07:25:38.737Z,38.29
2023-08-15T07:28:08.026Z,38.67
2023-08-15T07:30:37.084Z,39.08
2023-08-15T07:33:07.077Z,39.50
2023-08-15T07:35:36.535Z,39.75
2023-08-15T07:38:05.668Z,39.82
2023-08-15T07:40:34.601Z,40.03
2023-08-15T07:43:07.517Z,40.37
2023-08-15T07:45:36.450Z,40.29
2023-08-15T07:48:06.971Z,40.22
2023-08-15T07:50:37.496Z,40.36
2023-08-15T07:53:07.533Z,40.51
2023-08-15T07:55:38.571Z,40.63
2023-08-15T07:58:07.574Z,40.78
2023-08-15T08:00:36.548Z,41.18
2023-08-15T08:03:09.433Z,41.76
2023-08-15T08:05:42.098Z,42.25
2023-08-15T08:08:11.007Z,42.69
2023-08-15T08:10:48.013Z,43.13
2023-08-15T08:13:45.409Z,43.63
2023-08-15T08:16:34.288Z,43.82
2023-08-15T08:19:04.062Z,43.77
2023-08-15T08:21:36.046Z,43.76
2023-08-15T08:24:14.478Z,43.89
2023-08-15T08:26:51.067Z,44.06
2023-08-15T08:29:25.284Z,43.36
2023-08-15T08:31:54.710Z,43.55
2023-08-15T08:34:24.107Z,44.33
2023-08-15T08:36:52.679Z,44.73
2023-08-15T08:39:31.766Z,45.08
2023-08-15T08:42:22.457Z,44.92
2023-08-15T08:44:52.707Z,44.78
2023-08-15T08:47:42.808Z,44.66
2023-08-15T08:50:13.425Z,44.36
2023-08-15T08:52:52.567Z,44.38
2023-08-15T08:55:28.537Z,44.00
2023-08-15T08:58:13.579Z,43.92
2023-08-15T09:00:44.769Z,43.63
2023-08-15T09:03:34.415Z,43.69
2023-08-15T09:06:03.441Z,44.37
2023-08-15T09:08:33.712Z,45.01
2023-08-15T09:11:46.618Z,45.29
2023-08-15T09:14:16.258Z,45.24
2023-08-15T09:16:49.875Z,45.21
2023-08-15T09:22:41.074Z,44.64
2023-08-15T09:25:16.461Z,44.81
2023-08-15T09:28:39.100Z,44.81
2023-08-15T09:38:34.090Z,43.61
2023-08-15T09:41:28.269Z,43.95
2023-08-15T09:44:34.260Z,44.07
2023-08-15T09:47:03.975Z,44.21
2023-08-15T09:49:34.281Z,44.41
2023-08-15T09:52:24.339Z,44.36
2023-08-15T10:01:14.378Z,43.73
2023-08-15T10:04:17.509Z,43.83
2023-08-15T10:07:02.108Z,43.76
2023-08-15T10:10:12.432Z,44.08
2023-08-15T10:33:34.296Z,43.95
2023-08-15T10:39:44.875Z,44.50
2023-08-15T10:49:12.179Z,43.38
2023-08-15T10:51:42.771Z,43.97
2023-08-15T11:04:34.853Z,44.15
2023-08-15T11:07:04.927Z,44.39
2023-08-15T11:10:48.516Z,44.19
2023-08-15T11:13:50.485Z,44.24
2023-08-15T11:16:58.890Z,43.79
2023-08-15T11:20:20.934Z,43.67
2023-08-15T11:23:45.903Z,44.02
2023-08-15T11:27:08.965Z,44.06
2023-08-15T11:30:43.933Z,44.09
2023-08-15T11:33:31.466Z,44.17
2023-08-15T11:37:02.400Z,43.97
2023-08-15T11:44:31.720Z,43.67
2023-08-15T11:47:21.727Z,43.66
2023-08-15T11:54:05.111Z,42.79
2023-08-15T11:56:55.720Z,42.75
2023-08-15T12:00:04.322Z,42.38
2023-08-15T12:02:57.305Z,42.50
2023-08-15T12:06:09.581Z,42.20
2023-08-15T12:08:50.010Z,41.69
2023-08-15T12:11:21.920Z,40.86
2023-08-15T12:13:51.237Z,39.90
2023-08-15T12:16:21.172Z,39.09
2023-08-15T12:19:32.136Z,38.10
2023-08-15T12:25:57.217Z,36.25
2023-08-15T12:29:05.086Z,35.64
2023-08-15T12:32:20.856Z,35.21
2023-08-15T12:35:30.213Z,34.86
2023-08-15T12:38:31.420Z,34.74
2023-08-15T12:41:00.780Z,34.76
2023-08-15T12:43:29.549Z,34.83
2023-08-15T12:46:50.413Z,34.84
2023-08-15T12:49:52.520Z,34.60
2023-08-15T12:52:28.398Z,34.38
2023-08-15T12:54:57.868Z,34.11
2023-08-15T12:57:37.260Z,33.96
2023-08-15T13:00:10.376Z,33.85
2023-08-15T13:02:39.971Z,33.80
2023-08-15T13:05:09.471Z,33.73
2023-08-15T13:07:39.332Z,33.61
2023-08-15T13:10:46.006Z,33.65
2023-08-15T13:13:20.513Z,33.57
2023-08-15T13:15:56.898Z,33.52
2023-08-15T13:18:45.502Z,33.49
2023-08-15T13:21:14.519Z,33.55
2023-08-15T13:23:46.387Z,33.61
2023-08-15T13:26:16.833Z,33.60
2023-08-15T13:28:52.082Z,33.57
2023-08-15T13:31:24.502Z,33.45
2023-08-15T13:33:53.621Z,33.44
2023-08-15T13:39:37.249Z,33.46
2023-08-15T13:43:03.191Z,33.52
2023-08-15T13:48:44.693Z,33.56
2023-08-15T13:51:36.893Z,33.63
2023-08-15T13:57:50.373Z,33.70
2023-08-15T14:00:45.580Z,33.72
2023-08-15T14:04:18.066Z,33.81
2023-08-15T14:07:40.364Z,33.80
2023-08-15T14:11:16.413Z,33.75
2023-08-15T14:17:44.530Z,33.69
2023-08-15T14:21:08.147Z,33.73
2023-08-15T14:30:45.110Z,33.65
2023-08-15T14:37:05.034Z,33.52
2023-08-15T14:43:18.557Z,33.55
2023-08-15T15:15:16.521Z,33.44
2023-08-15T16:04:19.685Z,33.14
2023-08-15T16:07:24.007Z,33.14
2023-08-15T16:11:12.506Z,33.08
2023-08-15T16:20:25.419Z,32.92
2023-08-15T16:24:09.232Z,32.86
2023-08-15T16:27:26.351Z,32.84
2023-08-15T16:31:12.077Z,32.77
2023-08-15T16:55:13.256Z,32.45
2023-08-15T17:01:06.637Z,32.32
2023-08-15T17:13:33.427Z,32.09
2023-08-15T17:26:30.370Z,31.46
2023-08-15T17:32:34.436Z,31.02
2023-08-15T17:38:43.178Z,30.59
2023-08-15T17:47:40.271Z,29.84
2023-08-15T17:51:14.163Z,28.92
2023-08-15T17:54:38.120Z,29.40
2023-08-15T17:57:20.283Z,29.06
2023-08-15T17:59:52.123Z,28.79
2023-08-15T18:02:22.503Z,28.54
2023-08-15T18:04:53.178Z,28.29
2023-08-15T18:07:22.458Z,28.04
2023-08-15T18:10:26.512Z,27.81
2023-08-15T18:12:56.975Z,27.53
2023-08-15T18:15:30.386Z,27.33
2023-08-15T18:18:00.466Z,27.17
2023-08-15T18:20:33.575Z,27.01
2023-08-15T18:23:05.342Z,26.85
2023-08-15T18:25:36.557Z,26.70
2023-08-15T18:28:18.301Z,26.54
2023-08-15T18:30:53.158Z,26.41
2023-08-15T18:34:05.817Z,26.26
2023-08-15T18:37:06.819Z,26.09
2023-08-15T18:43:13.341Z,25.77
2023-08-15T18:46:12.975Z,25.66
2023-08-15T18:48:44.862Z,25.53
2023-08-15T18:51:35.985Z,25.46
2023-08-15T18:54:09.374Z,25.35
2023-08-15T18:56:42.225Z,25.23
2023-08-15T18:59:15.163Z,25.12
2023-08-15T19:01:50.932Z,24.99
2023-08-15T19:05:00.784Z,24.88
2023-08-15T19:08:32.813Z,24.71
2023-08-15T19:14:52.971Z,24.46
2023-08-15T19:17:36.351Z,24.34
2023-08-15T19:23:43.660Z,24.09
2023-08-15T19:27:04.492Z,23.97
2023-08-15T19:33:17.507Z,23.78
2023-08-15T19:43:23.642Z,23.54
2023-08-15T19:52:37.165Z,23.24
2023-08-15T19:58:31.413Z,23.08
2023-08-15T20:07:49.288Z,22.82
2023-08-15T20:11:13.458Z,22.73
2023-08-15T20:14:51.313Z,22.62
2023-08-15T20:18:29.301Z,22.49
2023-08-15T20:21:52.047Z,22.45
2023-08-15T20:24:58.157Z,22.48
2023-08-15T20:28:14.619Z,22.36
2023-08-15T20:31:29.595Z,22.25
2023-08-15T20:34:33.338Z,22.19
2023-08-15T20:37:03.363Z,22.19
2023-08-15T20:39:33.479Z,22.13
2023-08-15T20:42:02.532Z,22.09
2023-08-15T20:45:18.475Z,22.02
2023-08-15T20:47:52.773Z,22.00
2023-08-15T20:54:29.381Z,21.75
2023-08-15T20:57:02.948Z,21.63
2023-08-15T20:59:41.193Z,21.61
2023-08-15T21:11:48.445Z,21.53
2023-08-15T21:15:33.347Z,21.49
2023-08-15T21:21:57.470Z,21.48
2023-08-15T21:25:22.697Z,21.49
2023-08-15T21:28:59.341Z,21.48
2023-08-15T21:32:44.438Z,21.48
2023-08-15T21:36:09.444Z,21.41
2023-08-15T21:39:54.606Z,21.39
2023-08-15T21:43:32.359Z,21.50
2023-08-15T21:46:48.425Z,21.64
2023-08-15T21:49:52.846Z,21.76
2023-08-15T21:56:36.477Z,22.05
2023-08-15T22:06:31.508Z,21.88
2023-08-15T22:09:59.244Z,21.79
2023-08-15T22:13:14.106Z,21.61
2023-08-15T22:16:28.577Z,21.45
2023-08-15T22:19:45.261Z,21.27
2023-08-15T22:22:59.782Z,21.15
2023-08-15T22:32:28.603Z,20.86
2023-08-15T22:36:04.853Z,20.77
2023-08-15T22:45:49.678Z,20.54
2023-08-15T22:49:23.221Z,20.48
2023-08-15T22:52:57.552Z,20.44
2023-08-15T22:59:53.814Z,20.35
2023-08-15T23:03:48.528Z,20.28
2023-08-15T23:07:50.048Z,20.20
2023-08-15T23:12:01.362Z,20.25
2023-08-15T23:15:01.580Z,20.38
2023-08-15T23:18:25.820Z,20.52
2023-08-15T23:24:49.975Z,20.54
2023-08-15T23:28:04.863Z,20.52
2023-08-15T23:31:24.878Z,20.56
2023-08-15T23:37:48.553Z,20.66
2023-08-15T23:41:25.741Z,20.70
2023-08-15T23:45:00.466Z,20.72
2023-08-15T23:48:34.419Z,20.67
2023-08-15T23:51:57.093Z,20.62
2023-08-15T23:55:14.638Z,20.59
2023-08-15T23:58:41.443Z,20.53
